sensor_id;sensor_type;location;lat;lon;timestamp;P1;durP1;ratioP1;P2;durP2;ratioP2
48805;SDS011;34625;47.176;27.548;2022-08-19T00:00:35;12.50;;;6.25;;
48805;SDS011;34625;47.176;27.548;2022-08-19T00:03:03;10.07;;;5.78;;
48805;SDS011;34625;47.176;27.548;2022-08-19T00:05:29;7.03;;;6.32;;
48805;SDS011;34625;47.176;27.548;2022-08-19T00:07:56;8.90;;;6.13;;
48805;SDS011;34625;47.176;27.548;2022-08-19T00:10:23;7.13;;;5.72;;
48805;SDS011;34625;47.176;27.548;2022-08-19T00:12:49;6.15;;;5.55;;
48805;SDS011;34625;47.176;27.548;2022-08-19T00:15:17;9.55;;;6.38;;
48805;SDS011;34625;47.176;27.548;2022-08-19T00:17:45;8.13;;;6.07;;
48805;SDS011;34625;47.176;27.548;2022-08-19T00:20:14;13.05;;;6.30;;
48805;SDS011;34625;47.176;27.548;2022-08-19T00:22:42;9.52;;;5.95;;
48805;SDS011;34625;47.176;27.548;2022-08-19T00:25:10;13.27;;;6.63;;
48805;SDS011;34625;47.176;27.548;2022-08-19T00:27:36;10.57;;;5.93;;
48805;SDS011;34625;47.176;27.548;2022-08-19T00:30:03;9.13;;;6.65;;
48805;SDS011;34625;47.176;27.548;2022-08-19T00:32:30;9.98;;;6.47;;
48805;SDS011;34625;47.176;27.548;2022-08-19T00:34:56;8.75;;;7.05;;
48805;SDS011;34625;47.176;27.548;2022-08-19T00:37:22;9.98;;;6.65;;
48805;SDS011;34625;47.176;27.548;2022-08-19T00:39:51;9.98;;;6.72;;
48805;SDS011;34625;47.176;27.548;2022-08-19T00:42:18;8.57;;;6.50;;
48805;SDS011;34625;47.176;27.548;2022-08-19T00:44:45;15.07;;;6.60;;
48805;SDS011;34625;47.176;27.548;2022-08-19T00:47:12;9.45;;;7.45;;
48805;SDS011;34625;47.176;27.548;2022-08-19T00:49:43;9.63;;;6.18;;
48805;SDS011;34625;47.176;27.548;2022-08-19T00:52:18;8.52;;;5.78;;
48805;SDS011;34625;47.176;27.548;2022-08-19T00:54:48;10.40;;;6.13;;
48805;SDS011;34625;47.176;27.548;2022-08-19T00:57:17;6.00;;;5.40;;
48805;SDS011;34625;47.176;27.548;2022-08-19T00:59:47;11.95;;;6.25;;
48805;SDS011;34625;47.176;27.548;2022-08-19T01:02:16;8.93;;;6.13;;
48805;SDS011;34625;47.176;27.548;2022-08-19T01:04:42;7.38;;;6.22;;
48805;SDS011;34625;47.176;27.548;2022-08-19T01:07:08;9.90;;;5.90;;
48805;SDS011;34625;47.176;27.548;2022-08-19T01:09:34;9.48;;;6.40;;
48805;SDS011;34625;47.176;27.548;2022-08-19T01:12:00;11.02;;;6.78;;
48805;SDS011;34625;47.176;27.548;2022-08-19T01:14:27;7.97;;;6.25;;
48805;SDS011;34625;47.176;27.548;2022-08-19T01:16:54;7.93;;;6.03;;
48805;SDS011;34625;47.176;27.548;2022-08-19T01:22:03;5.63;;;4.80;;
48805;SDS011;34625;47.176;27.548;2022-08-19T01:24:37;11.35;;;6.60;;
48805;SDS011;34625;47.176;27.548;2022-08-19T01:27:04;12.18;;;6.50;;
48805;SDS011;34625;47.176;27.548;2022-08-19T01:29:31;13.10;;;6.38;;
48805;SDS011;34625;47.176;27.548;2022-08-19T01:31:57;9.27;;;5.80;;
48805;SDS011;34625;47.176;27.548;2022-08-19T01:34:25;6.88;;;5.95;;
48805;SDS011;34625;47.176;27.548;2022-08-19T01:36:51;8.43;;;6.05;;
48805;SDS011;34625;47.176;27.548;2022-08-19T01:39:18;9.40;;;6.15;;
48805;SDS011;34625;47.176;27.548;2022-08-19T01:41:47;10.13;;;6.03;;
48805;SDS011;34625;47.176;27.548;2022-08-19T01:44:13;9.90;;;6.45;;
48805;SDS011;34625;47.176;27.548;2022-08-19T01:46:40;8.18;;;7.35;;
48805;SDS011;34625;47.176;27.548;2022-08-19T01:49:07;12.68;;;6.18;;
48805;SDS011;34625;47.176;27.548;2022-08-19T01:51:34;9.32;;;6.63;;
48805;SDS011;34625;47.176;27.548;2022-08-19T01:54:00;8.35;;;6.43;;
48805;SDS011;34625;47.176;27.548;2022-08-19T01:56:26;14.55;;;6.47;;
48805;SDS011;34625;47.176;27.548;2022-08-19T01:58:58;8.85;;;6.28;;
48805;SDS011;34625;47.176;27.548;2022-08-19T02:01:29;10.82;;;6.32;;
48805;SDS011;34625;47.176;27.548;2022-08-19T02:03:59;7.65;;;6.55;;
48805;SDS011;34625;47.176;27.548;2022-08-19T02:06:26;10.07;;;6.25;;
48805;SDS011;34625;47.176;27.548;2022-08-19T02:08:53;8.77;;;6.50;;
48805;SDS011;34625;47.176;27.548;2022-08-19T02:11:20;9.60;;;6.32;;
48805;SDS011;34625;47.176;27.548;2022-08-19T02:13:52;8.40;;;6.35;;
48805;SDS011;34625;47.176;27.548;2022-08-19T02:16:19;8.40;;;5.65;;
48805;SDS011;34625;47.176;27.548;2022-08-19T02:18:45;9.07;;;5.68;;
48805;SDS011;34625;47.176;27.548;2022-08-19T02:21:14;11.05;;;6.53;;
48805;SDS011;34625;47.176;27.548;2022-08-19T02:23:41;13.27;;;6.72;;
48805;SDS011;34625;47.176;27.548;2022-08-19T02:26:08;5.88;;;4.53;;
48805;SDS011;34625;47.176;27.548;2022-08-19T02:28:35;6.75;;;5.43;;
48805;SDS011;34625;47.176;27.548;2022-08-19T02:31:02;12.98;;;5.53;;
48805;SDS011;34625;47.176;27.548;2022-08-19T02:33:29;8.75;;;6.40;;
48805;SDS011;34625;47.176;27.548;2022-08-19T02:35:55;7.47;;;5.88;;
48805;SDS011;34625;47.176;27.548;2022-08-19T02:38:21;9.55;;;7.00;;
48805;SDS011;34625;47.176;27.548;2022-08-19T02:41:12;10.60;;;6.95;;
48805;SDS011;34625;47.176;27.548;2022-08-19T02:43:43;13.43;;;6.47;;
48805;SDS011;34625;47.176;27.548;2022-08-19T02:46:13;9.52;;;6.70;;
48805;SDS011;34625;47.176;27.548;2022-08-19T02:51:30;6.90;;;4.40;;
48805;SDS011;34625;47.176;27.548;2022-08-19T02:54:02;7.70;;;6.07;;
48805;SDS011;34625;47.176;27.548;2022-08-19T02:56:29;6.95;;;6.13;;
48805;SDS011;34625;47.176;27.548;2022-08-19T02:58:56;7.22;;;5.80;;
48805;SDS011;34625;47.176;27.548;2022-08-19T03:01:27;7.60;;;5.45;;
48805;SDS011;34625;47.176;27.548;2022-08-19T03:03:58;16.55;;;6.25;;
48805;SDS011;34625;47.176;27.548;2022-08-19T03:06:26;9.27;;;6.28;;
48805;SDS011;34625;47.176;27.548;2022-08-19T03:08:53;10.77;;;6.88;;
48805;SDS011;34625;47.176;27.548;2022-08-19T03:11:21;15.50;;;6.03;;
48805;SDS011;34625;47.176;27.548;2022-08-19T03:13:50;9.10;;;6.38;;
48805;SDS011;34625;47.176;27.548;2022-08-19T03:16:17;9.38;;;6.47;;
48805;SDS011;34625;47.176;27.548;2022-08-19T03:18:44;10.13;;;7.20;;
48805;SDS011;34625;47.176;27.548;2022-08-19T03:21:15;7.45;;;6.40;;
48805;SDS011;34625;47.176;27.548;2022-08-19T03:23:47;7.93;;;6.28;;
48805;SDS011;34625;47.176;27.548;2022-08-19T03:26:13;9.40;;;5.53;;
48805;SDS011;34625;47.176;27.548;2022-08-19T03:28:40;15.40;;;6.65;;
48805;SDS011;34625;47.176;27.548;2022-08-19T03:31:10;10.30;;;6.38;;
48805;SDS011;34625;47.176;27.548;2022-08-19T03:33:37;10.73;;;6.07;;
48805;SDS011;34625;47.176;27.548;2022-08-19T03:38:36;6.63;;;4.88;;
48805;SDS011;34625;47.176;27.548;2022-08-19T03:41:07;7.05;;;5.85;;
48805;SDS011;34625;47.176;27.548;2022-08-19T03:43:36;13.75;;;6.65;;
48805;SDS011;34625;47.176;27.548;2022-08-19T03:46:07;14.23;;;6.93;;
48805;SDS011;34625;47.176;27.548;2022-08-19T03:48:36;8.70;;;6.47;;
48805;SDS011;34625;47.176;27.548;2022-08-19T03:51:05;7.40;;;5.88;;
48805;SDS011;34625;47.176;27.548;2022-08-19T03:53:32;6.50;;;5.88;;
48805;SDS011;34625;47.176;27.548;2022-08-19T03:56:00;7.22;;;6.53;;
48805;SDS011;34625;47.176;27.548;2022-08-19T03:58:27;13.77;;;7.10;;
48805;SDS011;34625;47.176;27.548;2022-08-19T04:00:55;10.13;;;7.60;;
48805;SDS011;34625;47.176;27.548;2022-08-19T04:03:22;11.77;;;7.85;;
48805;SDS011;34625;47.176;27.548;2022-08-19T04:05:49;11.38;;;8.20;;
48805;SDS011;34625;47.176;27.548;2022-08-19T04:08:15;9.50;;;8.00;;
48805;SDS011;34625;47.176;27.548;2022-08-19T04:10:45;9.60;;;7.63;;
48805;SDS011;34625;47.176;27.548;2022-08-19T04:13:13;12.85;;;8.82;;
48805;SDS011;34625;47.176;27.548;2022-08-19T04:15:41;10.52;;;8.55;;
48805;SDS011;34625;47.176;27.548;2022-08-19T04:18:08;9.90;;;8.07;;
48805;SDS011;34625;47.176;27.548;2022-08-19T04:20:43;10.70;;;7.68;;
48805;SDS011;34625;47.176;27.548;2022-08-19T04:23:12;10.25;;;8.02;;
48805;SDS011;34625;47.176;27.548;2022-08-19T04:25:40;10.77;;;8.27;;
48805;SDS011;34625;47.176;27.548;2022-08-19T04:28:09;11.65;;;8.90;;
48805;SDS011;34625;47.176;27.548;2022-08-19T04:30:40;9.55;;;7.68;;
48805;SDS011;34625;47.176;27.548;2022-08-19T04:33:09;9.53;;;8.10;;
48805;SDS011;34625;47.176;27.548;2022-08-19T04:35:39;14.73;;;8.35;;
48805;SDS011;34625;47.176;27.548;2022-08-19T04:38:08;12.18;;;7.68;;
48805;SDS011;34625;47.176;27.548;2022-08-19T04:40:39;15.10;;;7.68;;
48805;SDS011;34625;47.176;27.548;2022-08-19T04:43:28;14.60;;;7.90;;
48805;SDS011;34625;47.176;27.548;2022-08-19T04:45:54;14.88;;;8.07;;
48805;SDS011;34625;47.176;27.548;2022-08-19T04:48:21;10.90;;;4.38;;
48805;SDS011;34625;47.176;27.548;2022-08-19T04:50:52;6.03;;;5.25;;
48805;SDS011;34625;47.176;27.548;2022-08-19T04:53:27;8.93;;;5.97;;
48805;SDS011;34625;47.176;27.548;2022-08-19T04:55:58;9.30;;;6.38;;
48805;SDS011;34625;47.176;27.548;2022-08-19T04:58:28;5.72;;;4.95;;
48805;SDS011;34625;47.176;27.548;2022-08-19T05:00:54;10.18;;;6.57;;
48805;SDS011;34625;47.176;27.548;2022-08-19T05:03:20;6.50;;;4.60;;
48805;SDS011;34625;47.176;27.548;2022-08-19T05:05:47;5.85;;;3.97;;
48805;SDS011;34625;47.176;27.548;2022-08-19T05:08:15;6.78;;;5.20;;
48805;SDS011;34625;47.176;27.548;2022-08-19T05:10:48;11.85;;;7.22;;
48805;SDS011;34625;47.176;27.548;2022-08-19T05:13:15;6.25;;;3.95;;
48805;SDS011;34625;47.176;27.548;2022-08-19T05:15:43;7.18;;;5.00;;
48805;SDS011;34625;47.176;27.548;2022-08-19T05:18:18;9.68;;;8.65;;
48805;SDS011;34625;47.176;27.548;2022-08-19T05:21:09;13.77;;;8.57;;
48805;SDS011;34625;47.176;27.548;2022-08-19T05:23:56;13.98;;;8.20;;
48805;SDS011;34625;47.176;27.548;2022-08-19T05:26:23;11.57;;;7.80;;
48805;SDS011;34625;47.176;27.548;2022-08-19T05:28:51;12.93;;;9.10;;
48805;SDS011;34625;47.176;27.548;2022-08-19T05:31:18;13.43;;;8.18;;
48805;SDS011;34625;47.176;27.548;2022-08-19T05:33:44;14.32;;;8.45;;
48805;SDS011;34625;47.176;27.548;2022-08-19T05:36:11;9.45;;;6.75;;
48805;SDS011;34625;47.176;27.548;2022-08-19T05:38:37;17.38;;;8.18;;
48805;SDS011;34625;47.176;27.548;2022-08-19T05:41:10;10.88;;;7.20;;
48805;SDS011;34625;47.176;27.548;2022-08-19T05:43:38;8.93;;;7.60;;
48805;SDS011;34625;47.176;27.548;2022-08-19T05:46:05;10.40;;;7.53;;
48805;SDS011;34625;47.176;27.548;2022-08-19T05:48:32;9.90;;;7.20;;
48805;SDS011;34625;47.176;27.548;2022-08-19T05:51:03;10.07;;;7.47;;
48805;SDS011;34625;47.176;27.548;2022-08-19T05:53:31;9.73;;;7.30;;
48805;SDS011;34625;47.176;27.548;2022-08-19T05:56:03;13.75;;;7.30;;
48805;SDS011;34625;47.176;27.548;2022-08-19T05:58:34;9.43;;;6.65;;
48805;SDS011;34625;47.176;27.548;2022-08-19T06:01:01;8.52;;;6.68;;
48805;SDS011;34625;47.176;27.548;2022-08-19T06:03:33;7.78;;;6.57;;
48805;SDS011;34625;47.176;27.548;2022-08-19T06:06:05;9.00;;;6.55;;
48805;SDS011;34625;47.176;27.548;2022-08-19T06:08:33;10.98;;;6.18;;
48805;SDS011;34625;47.176;27.548;2022-08-19T06:11:17;15.50;;;6.78;;
48805;SDS011;34625;47.176;27.548;2022-08-19T06:13:49;10.60;;;7.50;;
48805;SDS011;34625;47.176;27.548;2022-08-19T06:16:20;11.88;;;6.85;;
48805;SDS011;34625;47.176;27.548;2022-08-19T06:18:53;10.82;;;6.43;;
48805;SDS011;34625;47.176;27.548;2022-08-19T06:21:23;7.80;;;6.05;;
48805;SDS011;34625;47.176;27.548;2022-08-19T06:23:51;11.38;;;6.57;;
48805;SDS011;34625;47.176;27.548;2022-08-19T06:26:18;16.30;;;7.10;;
48805;SDS011;34625;47.176;27.548;2022-08-19T06:28:45;10.73;;;6.70;;
48805;SDS011;34625;47.176;27.548;2022-08-19T06:31:15;7.80;;;6.43;;
48805;SDS011;34625;47.176;27.548;2022-08-19T06:33:43;9.13;;;6.35;;
48805;SDS011;34625;47.176;27.548;2022-08-19T06:36:17;9.90;;;7.03;;
48805;SDS011;34625;47.176;27.548;2022-08-19T06:38:57;8.73;;;6.38;;
48805;SDS011;34625;47.176;27.548;2022-08-19T06:41:24;8.05;;;6.40;;
48805;SDS011;34625;47.176;27.548;2022-08-19T06:43:51;11.60;;;6.72;;
48805;SDS011;34625;47.176;27.548;2022-08-19T06:46:17;11.05;;;7.47;;
48805;SDS011;34625;47.176;27.548;2022-08-19T06:48:45;12.05;;;5.70;;
48805;SDS011;34625;47.176;27.548;2022-08-19T06:51:13;10.75;;;6.50;;
48805;SDS011;34625;47.176;27.548;2022-08-19T06:53:44;11.23;;;6.60;;
48805;SDS011;34625;47.176;27.548;2022-08-19T06:56:18;11.57;;;6.50;;
48805;SDS011;34625;47.176;27.548;2022-08-19T07:01:18;12.95;;;6.35;;
48805;SDS011;34625;47.176;27.548;2022-08-19T07:03:45;10.63;;;5.75;;
48805;SDS011;34625;47.176;27.548;2022-08-19T07:06:13;9.38;;;5.43;;
48805;SDS011;34625;47.176;27.548;2022-08-19T07:08:43;7.07;;;6.32;;
48805;SDS011;34625;47.176;27.548;2022-08-19T07:11:14;8.32;;;5.65;;
48805;SDS011;34625;47.176;27.548;2022-08-19T07:13:43;9.65;;;6.30;;
48805;SDS011;34625;47.176;27.548;2022-08-19T07:16:12;7.45;;;6.00;;
48805;SDS011;34625;47.176;27.548;2022-08-19T07:18:40;8.68;;;5.90;;
48805;SDS011;34625;47.176;27.548;2022-08-19T07:21:08;8.88;;;5.68;;
48805;SDS011;34625;47.176;27.548;2022-08-19T07:23:39;11.05;;;6.10;;
48805;SDS011;34625;47.176;27.548;2022-08-19T07:26:10;9.90;;;6.30;;
48805;SDS011;34625;47.176;27.548;2022-08-19T07:28:49;14.57;;;6.85;;
48805;SDS011;34625;47.176;27.548;2022-08-19T07:31:17;8.02;;;6.40;;
48805;SDS011;34625;47.176;27.548;2022-08-19T07:33:45;8.68;;;6.50;;
48805;SDS011;34625;47.176;27.548;2022-08-19T07:36:13;8.75;;;6.15;;
48805;SDS011;34625;47.176;27.548;2022-08-19T07:38:43;6.90;;;6.20;;
48805;SDS011;34625;47.176;27.548;2022-08-19T07:41:15;12.23;;;5.82;;
48805;SDS011;34625;47.176;27.548;2022-08-19T07:43:44;9.98;;;6.50;;
48805;SDS011;34625;47.176;27.548;2022-08-19T07:46:11;6.47;;;5.03;;
48805;SDS011;34625;47.176;27.548;2022-08-19T07:48:39;6.82;;;5.07;;
48805;SDS011;34625;47.176;27.548;2022-08-19T07:51:07;8.27;;;4.97;;
48805;SDS011;34625;47.176;27.548;2022-08-19T07:53:35;12.43;;;5.93;;
48805;SDS011;34625;47.176;27.548;2022-08-19T07:56:03;6.43;;;5.82;;
48805;SDS011;34625;47.176;27.548;2022-08-19T07:58:32;5.18;;;4.53;;
48805;SDS011;34625;47.176;27.548;2022-08-19T08:01:00;8.40;;;6.07;;
48805;SDS011;34625;47.176;27.548;2022-08-19T08:03:27;6.60;;;5.78;;
48805;SDS011;34625;47.176;27.548;2022-08-19T08:06:13;7.75;;;5.35;;
48805;SDS011;34625;47.176;27.548;2022-08-19T08:08:59;8.98;;;5.72;;
48805;SDS011;34625;47.176;27.548;2022-08-19T08:11:42;6.28;;;3.80;;
48805;SDS011;34625;47.176;27.548;2022-08-19T08:14:16;9.40;;;6.30;;
48805;SDS011;34625;47.176;27.548;2022-08-19T08:16:48;14.63;;;5.50;;
48805;SDS011;34625;47.176;27.548;2022-08-19T08:19:15;9.35;;;5.55;;
48805;SDS011;34625;47.176;27.548;2022-08-19T08:21:42;10.32;;;5.47;;
48805;SDS011;34625;47.176;27.548;2022-08-19T08:24:09;9.50;;;5.80;;
48805;SDS011;34625;47.176;27.548;2022-08-19T08:26:35;10.30;;;4.38;;
48805;SDS011;34625;47.176;27.548;2022-08-19T08:29:02;5.45;;;4.93;;
48805;SDS011;34625;47.176;27.548;2022-08-19T08:31:28;10.27;;;6.20;;
48805;SDS011;34625;47.176;27.548;2022-08-19T08:33:54;4.43;;;4.05;;
48805;SDS011;34625;47.176;27.548;2022-08-19T08:36:20;4.75;;;4.00;;
48805;SDS011;34625;47.176;27.548;2022-08-19T08:38:47;4.78;;;4.20;;
48805;SDS011;34625;47.176;27.548;2022-08-19T08:43:45;3.80;;;3.42;;
48805;SDS011;34625;47.176;27.548;2022-08-19T08:46:35;5.75;;;5.25;;
48805;SDS011;34625;47.176;27.548;2022-08-19T08:49:05;9.13;;;5.05;;
48805;SDS011;34625;47.176;27.548;2022-08-19T08:51:38;4.68;;;3.05;;
48805;SDS011;34625;47.176;27.548;2022-08-19T08:54:10;7.03;;;6.10;;
48805;SDS011;34625;47.176;27.548;2022-08-19T08:56:38;8.90;;;5.45;;
48805;SDS011;34625;47.176;27.548;2022-08-19T08:59:19;4.95;;;4.13;;
48805;SDS011;34625;47.176;27.548;2022-08-19T09:01:57;9.07;;;4.18;;
48805;SDS011;34625;47.176;27.548;2022-08-19T09:04:24;6.30;;;4.30;;
48805;SDS011;34625;47.176;27.548;2022-08-19T09:09:55;5.55;;;4.05;;
48805;SDS011;34625;47.176;27.548;2022-08-19T09:12:52;8.20;;;4.70;;
48805;SDS011;34625;47.176;27.548;2022-08-19T09:15:25;4.97;;;4.47;;
48805;SDS011;34625;47.176;27.548;2022-08-19T09:17:59;8.55;;;3.90;;
48805;SDS011;34625;47.176;27.548;2022-08-19T09:20:27;8.85;;;4.22;;
48805;SDS011;34625;47.176;27.548;2022-08-19T09:22:53;5.38;;;3.78;;
48805;SDS011;34625;47.176;27.548;2022-08-19T09:25:20;7.30;;;3.50;;
48805;SDS011;34625;47.176;27.548;2022-08-19T09:27:47;8.45;;;3.83;;
48805;SDS011;34625;47.176;27.548;2022-08-19T09:30:18;20.58;;;4.90;;
48805;SDS011;34625;47.176;27.548;2022-08-19T09:32:47;20.30;;;6.05;;
48805;SDS011;34625;47.176;27.548;2022-08-19T09:35:13;6.65;;;4.47;;
48805;SDS011;34625;47.176;27.548;2022-08-19T09:37:40;5.55;;;3.88;;
48805;SDS011;34625;47.176;27.548;2022-08-19T09:40:08;4.10;;;3.55;;
48805;SDS011;34625;47.176;27.548;2022-08-19T09:42:36;5.75;;;3.28;;
48805;SDS011;34625;47.176;27.548;2022-08-19T09:45:02;7.13;;;3.72;;
48805;SDS011;34625;47.176;27.548;2022-08-19T09:47:29;5.85;;;3.97;;
48805;SDS011;34625;47.176;27.548;2022-08-19T09:49:55;7.63;;;4.28;;
48805;SDS011;34625;47.176;27.548;2022-08-19T09:52:22;5.07;;;4.13;;
48805;SDS011;34625;47.176;27.548;2022-08-19T09:54:51;4.97;;;3.72;;
48805;SDS011;34625;47.176;27.548;2022-08-19T09:57:18;3.60;;;3.30;;
48805;SDS011;34625;47.176;27.548;2022-08-19T09:59:44;10.75;;;3.75;;
48805;SDS011;34625;47.176;27.548;2022-08-19T10:02:10;4.00;;;3.65;;
48805;SDS011;34625;47.176;27.548;2022-08-19T10:04:37;6.38;;;3.30;;
48805;SDS011;34625;47.176;27.548;2022-08-19T10:07:21;3.65;;;3.35;;
48805;SDS011;34625;47.176;27.548;2022-08-19T10:09:47;5.22;;;4.45;;
48805;SDS011;34625;47.176;27.548;2022-08-19T10:12:13;12.13;;;4.18;;
48805;SDS011;34625;47.176;27.548;2022-08-19T10:14:40;6.45;;;3.42;;
48805;SDS011;34625;47.176;27.548;2022-08-19T10:17:07;7.30;;;3.28;;
48805;SDS011;34625;47.176;27.548;2022-08-19T10:19:33;5.45;;;3.63;;
48805;SDS011;34625;47.176;27.548;2022-08-19T10:22:07;4.85;;;3.35;;
48805;SDS011;34625;47.176;27.548;2022-08-19T10:24:33;4.45;;;3.70;;
48805;SDS011;34625;47.176;27.548;2022-08-19T10:27:00;8.32;;;3.55;;
48805;SDS011;34625;47.176;27.548;2022-08-19T10:29:31;9.77;;;3.70;;
48805;SDS011;34625;47.176;27.548;2022-08-19T10:32:03;5.65;;;3.88;;
48805;SDS011;34625;47.176;27.548;2022-08-19T10:34:32;4.43;;;3.97;;
48805;SDS011;34625;47.176;27.548;2022-08-19T10:37:00;7.50;;;3.80;;
48805;SDS011;34625;47.176;27.548;2022-08-19T10:39:28;6.65;;;3.42;;
48805;SDS011;34625;47.176;27.548;2022-08-19T10:41:55;3.28;;;2.97;;
48805;SDS011;34625;47.176;27.548;2022-08-19T10:44:22;8.48;;;3.40;;
48805;SDS011;34625;47.176;27.548;2022-08-19T10:46:53;6.93;;;3.20;;
48805;SDS011;34625;47.176;27.548;2022-08-19T10:49:19;14.02;;;3.38;;
48805;SDS011;34625;47.176;27.548;2022-08-19T10:51:45;4.53;;;2.97;;
48805;SDS011;34625;47.176;27.548;2022-08-19T10:54:30;3.05;;;2.45;;
48805;SDS011;34625;47.176;27.548;2022-08-19T10:57:17;3.53;;;3.22;;
48805;SDS011;34625;47.176;27.548;2022-08-19T10:59:43;5.47;;;3.08;;
48805;SDS011;34625;47.176;27.548;2022-08-19T11:02:10;5.07;;;3.13;;
48805;SDS011;34625;47.176;27.548;2022-08-19T11:04:38;5.95;;;3.63;;
48805;SDS011;34625;47.176;27.548;2022-08-19T11:07:05;4.82;;;3.00;;
48805;SDS011;34625;47.176;27.548;2022-08-19T11:09:35;2.45;;;2.25;;
48805;SDS011;34625;47.176;27.548;2022-08-19T11:12:04;6.70;;;2.97;;
48805;SDS011;34625;47.176;27.548;2022-08-19T11:14:30;7.70;;;3.13;;
48805;SDS011;34625;47.176;27.548;2022-08-19T11:16:58;7.63;;;3.15;;
48805;SDS011;34625;47.176;27.548;2022-08-19T11:19:24;3.58;;;2.85;;
48805;SDS011;34625;47.176;27.548;2022-08-19T11:21:51;6.78;;;3.20;;
48805;SDS011;34625;47.176;27.548;2022-08-19T11:24:23;4.28;;;2.63;;
48805;SDS011;34625;47.176;27.548;2022-08-19T11:26:51;3.10;;;2.38;;
48805;SDS011;34625;47.176;27.548;2022-08-19T11:29:24;7.95;;;3.35;;
48805;SDS011;34625;47.176;27.548;2022-08-19T11:31:53;5.22;;;2.75;;
48805;SDS011;34625;47.176;27.548;2022-08-19T11:34:21;2.60;;;2.40;;
48805;SDS011;34625;47.176;27.548;2022-08-19T11:36:49;5.10;;;2.78;;
48805;SDS011;34625;47.176;27.548;2022-08-19T11:39:17;8.50;;;2.70;;
48805;SDS011;34625;47.176;27.548;2022-08-19T11:41:45;6.63;;;2.85;;
48805;SDS011;34625;47.176;27.548;2022-08-19T11:44:11;5.93;;;2.80;;
48805;SDS011;34625;47.176;27.548;2022-08-19T11:46:39;4.43;;;2.53;;
48805;SDS011;34625;47.176;27.548;2022-08-19T11:49:10;2.92;;;2.65;;
48805;SDS011;34625;47.176;27.548;2022-08-19T11:51:36;3.85;;;2.55;;
48805;SDS011;34625;47.176;27.548;2022-08-19T11:54:04;3.70;;;2.60;;
48805;SDS011;34625;47.176;27.548;2022-08-19T11:56:31;5.43;;;2.83;;
48805;SDS011;34625;47.176;27.548;2022-08-19T11:58:57;4.43;;;2.63;;
48805;SDS011;34625;47.176;27.548;2022-08-19T12:01:24;6.05;;;3.00;;
48805;SDS011;34625;47.176;27.548;2022-08-19T12:03:52;6.07;;;3.03;;
48805;SDS011;34625;47.176;27.548;2022-08-19T12:06:21;3.88;;;2.47;;
48805;SDS011;34625;47.176;27.548;2022-08-19T12:08:50;2.65;;;1.42;;
48805;SDS011;34625;47.176;27.548;2022-08-19T12:11:17;4.10;;;2.60;;
48805;SDS011;34625;47.176;27.548;2022-08-19T12:13:43;4.32;;;2.85;;
48805;SDS011;34625;47.176;27.548;2022-08-19T12:16:12;3.53;;;3.10;;
48805;SDS011;34625;47.176;27.548;2022-08-19T12:18:43;10.63;;;3.58;;
48805;SDS011;34625;47.176;27.548;2022-08-19T12:21:15;3.00;;;2.70;;
48805;SDS011;34625;47.176;27.548;2022-08-19T12:23:43;3.33;;;2.38;;
48805;SDS011;34625;47.176;27.548;2022-08-19T12:26:10;7.60;;;2.83;;
48805;SDS011;34625;47.176;27.548;2022-08-19T12:28:37;5.10;;;2.50;;
48805;SDS011;34625;47.176;27.548;2022-08-19T12:31:04;6.32;;;2.30;;
48805;SDS011;34625;47.176;27.548;2022-08-19T12:33:30;7.07;;;2.65;;
48805;SDS011;34625;47.176;27.548;2022-08-19T12:36:00;7.25;;;2.22;;
48805;SDS011;34625;47.176;27.548;2022-08-19T12:38:28;4.35;;;2.60;;
48805;SDS011;34625;47.176;27.548;2022-08-19T12:40:55;3.17;;;2.47;;
48805;SDS011;34625;47.176;27.548;2022-08-19T12:43:21;6.30;;;3.45;;
48805;SDS011;34625;47.176;27.548;2022-08-19T12:45:47;5.38;;;2.83;;
48805;SDS011;34625;47.176;27.548;2022-08-19T12:48:15;6.90;;;3.45;;
48805;SDS011;34625;47.176;27.548;2022-08-19T12:50:42;5.93;;;2.55;;
48805;SDS011;34625;47.176;27.548;2022-08-19T12:53:12;3.25;;;2.72;;
48805;SDS011;34625;47.176;27.548;2022-08-19T12:55:39;4.45;;;2.05;;
48805;SDS011;34625;47.176;27.548;2022-08-19T12:58:06;7.53;;;2.80;;
48805;SDS011;34625;47.176;27.548;2022-08-19T13:00:32;2.80;;;2.53;;
48805;SDS011;34625;47.176;27.548;2022-08-19T13:02:58;4.88;;;2.83;;
48805;SDS011;34625;47.176;27.548;2022-08-19T13:05:29;11.48;;;2.83;;
48805;SDS011;34625;47.176;27.548;2022-08-19T13:07:57;4.20;;;2.42;;
48805;SDS011;34625;47.176;27.548;2022-08-19T13:10:26;8.02;;;2.13;;
48805;SDS011;34625;47.176;27.548;2022-08-19T13:12:55;4.50;;;2.55;;
48805;SDS011;34625;47.176;27.548;2022-08-19T13:15:22;4.13;;;2.78;;
48805;SDS011;34625;47.176;27.548;2022-08-19T13:17:48;5.63;;;2.65;;
48805;SDS011;34625;47.176;27.548;2022-08-19T13:20:17;3.28;;;2.65;;
48805;SDS011;34625;47.176;27.548;2022-08-19T13:22:45;6.10;;;2.42;;
48805;SDS011;34625;47.176;27.548;2022-08-19T13:25:12;3.63;;;2.60;;
48805;SDS011;34625;47.176;27.548;2022-08-19T13:27:39;9.77;;;2.80;;
48805;SDS011;34625;47.176;27.548;2022-08-19T13:30:07;4.53;;;2.22;;
48805;SDS011;34625;47.176;27.548;2022-08-19T13:32:53;5.53;;;2.78;;
48805;SDS011;34625;47.176;27.548;2022-08-19T13:35:40;14.45;;;3.00;;
48805;SDS011;34625;47.176;27.548;2022-08-19T13:38:18;3.92;;;2.20;;
48805;SDS011;34625;47.176;27.548;2022-08-19T13:40:46;2.80;;;2.40;;
48805;SDS011;34625;47.176;27.548;2022-08-19T13:43:13;3.10;;;2.42;;
48805;SDS011;34625;47.176;27.548;2022-08-19T13:45:40;4.03;;;3.05;;
48805;SDS011;34625;47.176;27.548;2022-08-19T13:48:06;5.45;;;2.95;;
48805;SDS011;34625;47.176;27.548;2022-08-19T13:50:34;3.20;;;2.58;;
48805;SDS011;34625;47.176;27.548;2022-08-19T13:53:05;7.57;;;2.90;;
48805;SDS011;34625;47.176;27.548;2022-08-19T13:55:32;8.43;;;2.95;;
48805;SDS011;34625;47.176;27.548;2022-08-19T13:58:00;6.65;;;2.72;;
48805;SDS011;34625;47.176;27.548;2022-08-19T14:00:31;5.05;;;2.70;;
48805;SDS011;34625;47.176;27.548;2022-08-19T14:02:59;6.25;;;3.08;;
48805;SDS011;34625;47.176;27.548;2022-08-19T14:05:25;3.90;;;2.85;;
48805;SDS011;34625;47.176;27.548;2022-08-19T14:07:53;5.25;;;3.10;;
48805;SDS011;34625;47.176;27.548;2022-08-19T14:10:20;6.80;;;3.58;;
48805;SDS011;34625;47.176;27.548;2022-08-19T14:12:47;4.57;;;2.75;;
48805;SDS011;34625;47.176;27.548;2022-08-19T14:15:13;5.20;;;2.45;;
48805;SDS011;34625;47.176;27.548;2022-08-19T14:17:44;6.30;;;2.88;;
48805;SDS011;34625;47.176;27.548;2022-08-19T14:20:12;6.40;;;2.85;;
48805;SDS011;34625;47.176;27.548;2022-08-19T14:22:41;10.48;;;2.42;;
48805;SDS011;34625;47.176;27.548;2022-08-19T14:25:09;5.18;;;2.60;;
48805;SDS011;34625;47.176;27.548;2022-08-19T14:27:38;5.00;;;2.67;;
48805;SDS011;34625;47.176;27.548;2022-08-19T14:30:07;4.68;;;2.92;;
48805;SDS011;34625;47.176;27.548;2022-08-19T14:32:35;5.93;;;2.28;;
48805;SDS011;34625;47.176;27.548;2022-08-19T14:35:02;5.43;;;2.50;;
48805;SDS011;34625;47.176;27.548;2022-08-19T14:37:30;6.75;;;2.92;;
48805;SDS011;34625;47.176;27.548;2022-08-19T14:39:57;4.07;;;2.83;;
48805;SDS011;34625;47.176;27.548;2022-08-19T14:42:23;10.38;;;2.50;;
48805;SDS011;34625;47.176;27.548;2022-08-19T14:44:49;3.95;;;2.40;;
48805;SDS011;34625;47.176;27.548;2022-08-19T14:47:15;4.68;;;2.50;;
48805;SDS011;34625;47.176;27.548;2022-08-19T14:49:42;8.20;;;3.10;;
48805;SDS011;34625;47.176;27.548;2022-08-19T14:52:09;10.10;;;2.78;;
48805;SDS011;34625;47.176;27.548;2022-08-19T14:54:35;8.43;;;2.65;;
48805;SDS011;34625;47.176;27.548;2022-08-19T14:57:01;6.00;;;2.40;;